Laurent Verva

Laurent Verva

Statistiques 2026

  • Courses courues : 42
  • Nb de victoires : -
  • Nb de places : 1
  • Écart gagnant : 143
  • Réussite à la gagne : -
  • Réussite à la place : 2%
Musique : 0a 8a 4a 6a 6a 0a 5a 5a Da 2a 9a 6a 5a Da 6a 0a 7a 4a
DateRangCatégorieAlloc.Dist.HippodromeChevalRed. KmSpé.
10/06/18 3 Trot 10 000€ 2 625m Saint Omer Fire Bird 1'19"2 Attelé
10/06/18 1 Trot 10 000€ 2 625m Saint Omer Felinara 1'20"7 Attelé
10/06/18 D Trot 13 000€ 2 625m Saint Omer Eliza Dream Attelé
10/06/18 9 Trot 13 000€ 2 650m Saint Omer Elite d'Alci 1'22"4 Attelé
10/06/18 D Trot 30 000€ 2 650m Saint Omer Verso de Made Attelé
02/09/18 6 Trot 13 000€ 2 625m Saint Omer Fidji Song 1'20"3 Attelé
02/09/18 0 Trot 14 000€ 2 650m Saint Omer Eden Pierji Attelé
02/09/18 4 Trot 13 000€ 2 625m Saint Omer Flashback Syga 1'21"2 Attelé
02/09/18 2 Trot 25 000€ 2 650m Saint Omer Au Temps Dubonheur 1'15"9 Attelé
02/09/18 D Trot 14 000€ 2 625m Saint Omer Epona des Neuzy Attelé
02/09/18 8 Trot 15 000€ 2 625m Saint Omer Dryade des Salines 1'20"2 Attelé
23/09/18 1 Trot 12 000€ 2 625m Saint Omer Flashback Syga 1'24"5 Attelé
23/09/18 4 Trot 12 000€ 2 625m Saint Omer Fiston d'hertals 1'24"6 Attelé
23/09/18 6 Trot 12 000€ 2 625m Saint Omer Etoile d'Ocque 1'23"8 Attelé
23/09/18 2 Trot 12 000€ 2 625m Saint Omer Erythia 1'23"0 Attelé
23/09/18 3 Trot 12 000€ 2 625m Saint Omer Fleur du Ramierou 1'22"1 Attelé
23/09/18 2 Trot 12 000€ 2 625m Saint Omer Filae des Salines 1'23"7 Attelé
23/09/18 4 Trot 12 000€ 2 625m Saint Omer Excelebration 1'20"6 Attelé
23/09/18 7 Trot 12 000€ 2 625m Saint Omer Ezekiel Okina 1'21"9 Attelé
17/01/10 7 Mixte 15 000€ 2 925m Sg-Kranji Sire de Helon 1'19"8 Attelé
17/01/10 5 Mixte 28 000€ 2 925m Sg-Kranji Ramille Monochrome 1'17"7 Attelé
22/04/19 4 Mixte 13 000€ 2 800m Strasbourg Fysalia Attelé
22/04/19 D Mixte 20 000€ 2 825m Strasbourg Bois du Bosnet Attelé
22/04/19 D Mixte 16 000€ 2 800m Strasbourg Elisee du Pont Attelé
08/05/19 9 Mixte 15 000€ 2 800m Strasbourg Florela du Loisir 1'20"9 Attelé
08/05/19 9 Mixte 21 000€ 2 825m Strasbourg Amio Josselyn 1'17"9 Attelé
13/09/20 4 Trot 11 000€ 2 200m Strasbourg Hippie du Toulay 1'20"1 Attelé
13/09/20 5 Trot 15 000€ 2 800m Strasbourg Esther du Ganep 1'15"7 Attelé
13/09/20 5 Trot 13 000€ 2 800m Strasbourg Fille des Marais 1'19"4 Attelé
01/11/20 1 Trot 11 000€ 2 800m Strasbourg Haoussa de Vennes 1'19"2 Attelé
01/11/20 D Trot 12 000€ 2 800m Strasbourg Guess Mencourt Attelé
01/11/20 5 Trot 12 000€ 2 800m Strasbourg Fille des Marais 1'19"3 Attelé
01/11/20 0 Trot 19 000€ 2 800m Strasbourg Ethano de Bouteau Attelé
22/05/21 D Trot 15 000€ 2 800m Strasbourg Hemse du Toulay Attelé
22/05/21 4 Trot 19 000€ 2 800m Strasbourg Flashback Syga 1'16"5 Attelé
22/05/21 5 Trot 29 000€ 2 800m Strasbourg Cador de Babel 1'16"3 Attelé
01/04/24 4 Trot 15 000€ 2 800m Strasbourg Jackpot d'Ardennes 1'18"5 Attelé
01/04/24 2 Trot 15 000€ 2 800m Strasbourg Joker de la Besvre 1'18"8 Attelé
01/04/24 8 Trot 13 000€ 2 800m Strasbourg Klassical Class 1'19"7 Attelé
01/04/24 3 Trot 24 000€ 2 800m Strasbourg Hercule de Bea 1'16"7 Attelé
29/08/24 5 Trot 19 500€ 2 800m Strasbourg Kiss Me Mencourt 1'17"6 Attelé
29/08/24 3 Trot 19 500€ 2 800m Strasbourg Karynndo Robsen 1'16"9 Attelé
29/08/24 5 Trot 25 000€ 2 800m Strasbourg Haoussa de Vennes 1'17"0 Attelé
29/08/24 2 Trot 28 000€ 2 800m Strasbourg Hercule de Bea 1'15"3 Attelé
25/10/24 3 Trot 22 000€ 2 800m Strasbourg Jutland 1'15"4 Attelé
25/10/24 1 Trot 19 500€ 2 800m Strasbourg Idole du Moncel 1'15"8 Attelé
15/05/25 2 Trot 19 500€ 2 800m Strasbourg Khan de Vauvert 1'16"8 Attelé
15/05/25 D Trot 24 000€ 2 800m Strasbourg Idole du Moncel Attelé
15/05/25 4 Trot 32 000€ 2 800m Strasbourg Hilton du Houlet 1'15"0 Attelé
28/08/25 D Trot 19 500€ 2 800m Strasbourg Liberty Blue Attelé